EGXW - Wainfleet
Distance from station: E 5mi, 14km
Updated: 01/21/2018 12:18am
Mist, Overcast
Mist, Overcast
 Wind from SW
Wind: SW 7 mph , 11 km/h
Temperature: 32°F , 0°C
Wind Chill: 25°F , -4°C
Dew Point: 32°F , 0°C
Humidity: 100%
Barometer: 29.91 inHg , 1013 hPa
Summary: Mist
Clouds: Overcast
Visibility: 2 miles , 3 km
Cloud details: Overcast 6000 ft
2018/01/21 08:18 EGXW 210818Z 22006KT 3200 BR OVC060 00/M00 Q1013 YLO1